LEAL Airport Information

Runway Information
Runway 10 Length 9842 ft width 148 ft
Elevation 142 ft Threshold 0 ft Heading 100
Runway 28 Length 9842 ft Width 148 ft
Elevation 44 ft Threshold 0 ft Heading 280
Airport Frequencies
Type APP Name APP Frequency 118.8 MHZ
Type ATIS Name ATIS Frequency 113.8 MHZ
Type GND Name GND Frequency 121.7 MHZ
Type TWR Name TWR Frequency 118.15 MHZ
Airport Navaids
Type VOR-DME Name Alicante Frequency 113800 KHZ
Type VOR-DME Name Alicante Frequency 114650 KHZ
Airport Weather Information & NOTAM
ADDS - METARS form results

(0645 UTC 15 December 2018)
Data provider http://aviationweather.gov/metar/data/
 
METAR text: LEAL 150630Z 27010KT 230V310 CAVOK 12/02 Q1023 NOSIG
Conditions at: LEAL (ALICANTE/EL ALTE, ES) observed 0630 UTC 15 December 2018
Temperature: 12.0°C (54°F)
Dewpoint: 2.0°C (36°F) [RH = 50%]
Pressure (altimeter): 30.21 inches Hg (1023.0 mb)
Winds: from the W (270 degrees) at 12 MPH (10 knots; 5.1 m/s)
Visibility: 6 or more miles (10+ km)
Ceiling: ceiling and visibility are OK
Clouds: unknown
Weather: no significant weather observed at this time

METAR text: LEAL 150600Z 29013KT 250V320 CAVOK 12/02 Q1023 NOSIG
Conditions at: LEAL (ALICANTE/EL ALTE, ES) observed 0600 UTC 15 December 2018
Temperature: 12.0°C (54°F)
Dewpoint: 2.0°C (36°F) [RH = 50%]
Pressure (altimeter): 30.21 inches Hg (1023.0 mb)
Winds: from the WNW (290 degrees) at 15 MPH (13 knots; 6.7 m/s)
Visibility: 6 or more miles (10+ km)
Ceiling: ceiling and visibility are OK
Clouds: unknown
Weather: no significant weather observed at this time

Forecast for: LEAL (ALICANTE/EL ALTE, ES)
Text: TAF LEAL 150500Z 1506/1606 30012KT 9999 FEW050 TX20/1512Z TN11/1506Z
Forecast period: 0600 UTC 15 December 2018 to 0600 UTC 16 December 2018
Forecast type: FROM: standard forecast or significant change
Winds: from the WNW (300 degrees) at 14 MPH (12 knots; 6.2 m/s)
Visibility: 6 or more miles 10+ km)
Ceiling: at least 12,000 feet AGL
Clouds: few clouds at 5000 feet AGL
Weather: no significant weather forecast for this period
Text: TEMPO 1506/1520 30015G25KT
Forecast period: 0600 to 2000 UTC 15 December 2018
Forecast type: TEMPORARY: The following changes expected for less than half the time period
Winds: from the WNW (300 degrees) at 17 MPH (15 knots; 7.7 m/s)
gusting to 29 MPH (25 knots; 12.9 m/s)
Visibility: missing
Ceiling: unknown
Clouds: missing
Weather: no significant weather forecast for this period